Huvudsida
METAR-TAF:

METAR-TAF

Flygplatser :

Khartoum, Sudan

latitud: 15-36N, longitud: 032-33E, höjd: 382 m

Aktuellt väderrapport

Denna rapport gjordes för 13 minuter sedan, klockan 14:30 UTC
Vind 8 kt från nord
Temperatur 29°C
Fuktighet 14%
Tryck 1015 hPa
Sikt 10 km eller mer
Inga moln under 1 500 m eller inga cumulonimbus

METAR: HSSS 161430Z 36008KT CAVOK 29/M01 Q1015 NOSIG

Tid: 17:43 (14:43 UTC)

Väderprognos

Denna rapport gjordes för 9 timmar och 43 minuter sedan, klockan 05:00 UTC
Prognos gäller från 16 kl. 06 UTC till 17 kl. 12 UTC
Vind 12 kt från nord i byarna ända upp till 22 kt
Sikt 10 km eller mer
Inga moln under 1 500 m eller inga cumulonimbus
Temporärt
från 16 kl. 06 UTC till 16 kl. 09 UTC
Sikt: 6000 m

TAF: HSSS 160500Z 1606/1712 36012G22KT CAVOK TEMPO 1606/1609 6000

Aktuella väderrapporter och prognoser från 4000 flygplatser (METAR- och TAF-rapporter).

De tillgängliga stationerna syns som gula och röda prickar på kartan.

För musen över prickarna för att se namnen på stationerna.

Klicka sedan för att få väderrapporter och prognoser.

För att ändra kartan: Klicka på de gröna knapparna med ett svart kors på för att zooma in; den gröna knappen med ett streck på för att zooma ut; eller på de gröna pilarna för angränsande kartor.


METAR-TAF: